createdAt,value
2024-03-02T00:02:08.702Z,9.78
2024-03-02T00:04:35.064Z,9.67
2024-03-02T00:07:01.590Z,9.56
2024-03-02T00:09:27.983Z,9.51
2024-03-02T00:11:54.377Z,9.53
2024-03-02T00:14:20.726Z,9.52
2024-03-02T00:16:47.090Z,9.49
2024-03-02T00:19:13.448Z,9.49
2024-03-02T00:21:39.909Z,9.46
2024-03-02T00:24:06.262Z,9.47
2024-03-02T00:26:32.659Z,9.53
2024-03-02T00:28:59.004Z,9.51
2024-03-02T00:31:25.377Z,9.53
2024-03-02T00:33:51.813Z,9.49
2024-03-02T00:36:18.346Z,9.49
2024-03-02T00:38:44.758Z,9.51
2024-03-02T00:41:11.098Z,9.50
2024-03-02T00:43:37.441Z,9.50
2024-03-02T00:46:03.775Z,9.48
2024-03-02T00:48:30.134Z,9.44
2024-03-02T00:50:56.539Z,9.42
2024-03-02T00:53:22.868Z,9.35
2024-03-02T00:55:49.218Z,9.38
2024-03-02T00:58:15.603Z,9.37
2024-03-02T01:00:42.085Z,9.40
2024-03-02T01:03:08.517Z,9.45
2024-03-02T01:05:34.935Z,9.46
2024-03-02T01:08:01.275Z,9.45
2024-03-02T01:10:27.615Z,9.34
2024-03-02T01:12:54.003Z,9.33
2024-03-02T01:15:20.386Z,9.34
2024-03-02T01:17:46.750Z,9.28
2024-03-02T01:20:13.139Z,9.34
2024-03-02T01:22:39.487Z,9.32
2024-03-02T01:25:05.919Z,9.29
2024-03-02T01:27:32.333Z,9.25
2024-03-02T01:29:58.715Z,9.23
2024-03-02T01:32:25.063Z,9.26
2024-03-02T01:34:51.411Z,9.28
2024-03-02T01:37:17.747Z,9.25
2024-03-02T01:39:44.108Z,9.24
2024-03-02T01:42:10.493Z,9.33
2024-03-02T01:44:36.849Z,9.34
2024-03-02T01:47:03.202Z,9.34
2024-03-02T01:49:29.563Z,9.39
2024-03-02T01:51:55.955Z,9.37
2024-03-02T01:54:23.864Z,9.36
2024-03-02T01:56:50.743Z,9.32
2024-03-02T01:59:17.100Z,9.18
2024-03-02T02:01:43.495Z,9.27
2024-03-02T02:04:09.888Z,9.29
2024-03-02T02:06:36.244Z,9.30
2024-03-02T02:09:02.603Z,9.26
2024-03-02T02:11:29.025Z,9.23
2024-03-02T02:13:55.375Z,9.20
2024-03-02T02:16:21.716Z,9.18
2024-03-02T02:18:48.108Z,9.21
2024-03-02T02:21:14.536Z,9.18
2024-03-02T02:23:40.923Z,9.18
2024-03-02T02:26:07.283Z,9.09
2024-03-02T02:28:33.637Z,8.99
2024-03-02T02:31:00.097Z,8.97
2024-03-02T02:33:26.598Z,9.02
2024-03-02T02:35:53.048Z,8.96
2024-03-02T02:38:19.385Z,9.00
2024-03-02T02:40:45.768Z,9.02
2024-03-02T02:43:12.119Z,9.02
2024-03-02T02:45:38.479Z,8.97
2024-03-02T02:48:04.962Z,8.98
2024-03-02T02:50:31.360Z,8.97
2024-03-02T02:52:57.716Z,9.00
2024-03-02T02:55:24.091Z,9.00
2024-03-02T02:57:50.450Z,9.00
2024-03-02T03:00:17.905Z,8.99
2024-03-02T03:02:45.145Z,8.99
2024-03-02T03:05:11.480Z,8.99
2024-03-02T03:07:37.821Z,9.02
2024-03-02T03:10:04.187Z,8.94
2024-03-02T03:12:30.543Z,8.88
2024-03-02T03:14:56.901Z,8.85
2024-03-02T03:17:23.306Z,8.81
2024-03-02T03:19:50.149Z,8.77
2024-03-02T03:22:16.570Z,8.76
2024-03-02T03:24:42.925Z,8.80
2024-03-02T03:27:09.296Z,8.81
2024-03-02T03:29:35.666Z,8.88
2024-03-02T03:32:02.061Z,8.93
2024-03-02T03:34:28.474Z,8.91
2024-03-02T03:36:54.968Z,8.92
2024-03-02T03:39:21.449Z,8.90
2024-03-02T03:41:47.808Z,8.85
2024-03-02T03:44:14.162Z,8.84
2024-03-02T03:46:40.598Z,8.87
2024-03-02T03:49:06.940Z,8.87
2024-03-02T03:51:33.332Z,8.83
2024-03-02T03:53:59.763Z,8.71
2024-03-02T03:56:26.100Z,8.75
2024-03-02T03:58:52.433Z,8.79
2024-03-02T04:01:18.906Z,8.79
2024-03-02T04:03:45.389Z,8.83
2024-03-02T04:06:11.754Z,8.90
2024-03-02T04:08:38.128Z,8.93
2024-03-02T04:11:04.512Z,8.98
2024-03-02T04:13:30.873Z,9.06
2024-03-02T04:15:57.327Z,9.03
2024-03-02T04:18:23.735Z,9.04
2024-03-02T04:20:53.214Z,9.03
2024-03-02T04:23:20.531Z,8.95
2024-03-02T04:25:46.863Z,8.93
2024-03-02T04:28:13.205Z,8.87
2024-03-02T04:30:39.603Z,8.86
2024-03-02T04:33:06.048Z,8.79
2024-03-02T04:35:32.413Z,8.73
2024-03-02T04:37:58.780Z,8.74
2024-03-02T04:40:25.129Z,8.74
2024-03-02T04:42:51.541Z,8.72
2024-03-02T04:45:18.082Z,8.66
2024-03-02T04:47:46.675Z,8.64
2024-03-02T04:50:14.220Z,8.57
2024-03-02T04:52:40.580Z,8.56
2024-03-02T04:55:06.930Z,8.55
2024-03-02T04:57:33.306Z,8.52
2024-03-02T04:59:59.699Z,8.50
2024-03-02T05:02:26.029Z,8.52
2024-03-02T05:04:52.367Z,8.49
2024-03-02T05:07:18.768Z,8.47
2024-03-02T05:09:45.145Z,8.50
2024-03-02T05:12:11.546Z,8.46
2024-03-02T05:14:37.924Z,8.43
2024-03-02T05:17:04.275Z,8.45
2024-03-02T05:19:30.622Z,8.44
2024-03-02T05:21:57.063Z,8.38
2024-03-02T05:24:23.488Z,8.39
2024-03-02T05:26:49.873Z,8.33
2024-03-02T05:29:16.280Z,8.32
2024-03-02T05:31:42.661Z,8.30
2024-03-02T05:34:09.074Z,8.34
2024-03-02T05:36:35.486Z,8.37
2024-03-02T05:39:01.837Z,8.36
2024-03-02T05:41:28.197Z,8.32
2024-03-02T05:43:54.555Z,8.35
2024-03-02T05:46:20.893Z,8.23
2024-03-02T05:48:47.329Z,8.26
2024-03-02T05:51:13.746Z,8.29
2024-03-02T05:53:40.105Z,8.30
2024-03-02T05:56:06.481Z,8.37
2024-03-02T05:58:32.840Z,8.32
2024-03-02T06:00:59.245Z,8.33
2024-03-02T06:03:25.689Z,8.32
2024-03-02T06:05:52.099Z,8.27
2024-03-02T06:08:18.447Z,8.10
2024-03-02T06:10:44.857Z,8.11
2024-03-02T06:13:11.281Z,8.15
2024-03-02T06:15:37.733Z,8.21
2024-03-02T06:18:04.197Z,8.25
2024-03-02T06:20:32.199Z,8.26
2024-03-02T06:22:59.838Z,8.35
2024-03-02T06:25:26.187Z,8.32
2024-03-02T06:27:52.587Z,8.20
2024-03-02T06:30:19.006Z,8.41
2024-03-02T06:32:45.416Z,8.42
2024-03-02T06:35:11.823Z,8.54
2024-03-02T06:37:38.157Z,8.68
2024-03-02T06:40:04.553Z,8.71
2024-03-02T06:42:30.943Z,8.85
2024-03-02T06:44:57.301Z,8.97
2024-03-02T06:47:23.673Z,9.08
2024-03-02T06:49:50.049Z,9.16
2024-03-02T06:52:16.390Z,9.23
2024-03-02T06:54:42.774Z,9.28
2024-03-02T06:57:09.187Z,9.33
2024-03-02T06:59:35.529Z,9.44
2024-03-02T07:02:01.930Z,9.56
2024-03-02T07:04:28.311Z,9.67
2024-03-02T07:06:54.678Z,9.74
2024-03-02T07:09:21.101Z,9.56
2024-03-02T07:11:50.356Z,9.62
2024-03-02T07:14:18.244Z,9.71
2024-03-02T07:16:44.570Z,9.91
2024-03-02T07:19:11.082Z,9.89
2024-03-02T07:21:37.541Z,10.01
2024-03-02T07:24:03.916Z,9.63
2024-03-02T07:28:59.541Z,9.45
2024-03-02T07:31:25.881Z,9.25
2024-03-02T07:33:52.297Z,8.89
2024-03-02T07:36:18.738Z,9.36
2024-03-02T07:38:45.091Z,9.57
2024-03-02T07:41:11.465Z,9.79
2024-03-02T07:43:38.913Z,10.03
2024-03-02T07:46:05.289Z,10.13
2024-03-02T07:48:31.714Z,10.17
2024-03-02T07:50:58.085Z,10.21
2024-03-02T07:53:24.426Z,10.26
2024-03-02T07:55:50.786Z,10.05
2024-03-02T07:58:17.136Z,10.16
2024-03-02T08:00:43.592Z,10.29
2024-03-02T08:03:09.968Z,10.43
2024-03-02T08:05:36.301Z,10.57
2024-03-02T08:08:02.635Z,10.80
2024-03-02T08:10:29.033Z,10.35
2024-03-02T08:12:55.402Z,10.17
2024-03-02T08:15:21.782Z,10.33
2024-03-02T08:17:48.185Z,10.06
2024-03-02T08:20:14.535Z,9.65
2024-03-02T08:22:40.884Z,9.99
2024-03-02T08:25:07.417Z,9.98
2024-03-02T08:27:34.386Z,9.43
2024-03-02T08:30:00.903Z,9.57
2024-03-02T08:32:27.324Z,9.28
2024-03-02T08:34:53.692Z,9.37
2024-03-02T08:37:20.020Z,9.73
2024-03-02T08:39:46.385Z,9.36
2024-03-02T08:42:12.732Z,9.20
2024-03-02T08:44:39.075Z,9.31
2024-03-02T08:47:05.508Z,9.45
2024-03-02T08:49:31.956Z,9.82
2024-03-02T08:51:58.545Z,10.15
2024-03-02T08:54:24.963Z,10.52
2024-03-02T08:56:51.322Z,10.78
2024-03-02T08:59:17.665Z,10.93
2024-03-02T09:01:44.155Z,10.95
2024-03-02T09:04:10.644Z,10.41
2024-03-02T09:06:37.017Z,10.46
2024-03-02T09:09:03.414Z,10.57
2024-03-02T09:11:29.762Z,10.75
2024-03-02T09:13:56.114Z,11.03
2024-03-02T09:16:22.473Z,11.23
2024-03-02T09:18:48.824Z,11.23
2024-03-02T09:21:15.193Z,11.57
2024-03-02T09:23:41.567Z,11.59
2024-03-02T09:26:07.894Z,11.94
2024-03-02T09:28:34.237Z,11.98
2024-03-02T09:31:01.003Z,12.40
2024-03-02T09:33:27.710Z,12.49
2024-03-02T09:35:55.478Z,12.55
2024-03-02T09:38:22.042Z,12.54
2024-03-02T09:40:48.381Z,12.59
2024-03-02T09:43:14.747Z,12.32
2024-03-02T09:45:41.266Z,12.60
2024-03-02T09:48:07.668Z,12.62
2024-03-02T09:50:34.001Z,12.99
2024-03-02T09:53:00.384Z,13.20
2024-03-02T09:55:26.790Z,13.33
2024-03-02T09:57:53.184Z,13.34
2024-03-02T10:00:19.549Z,13.44
2024-03-02T10:02:45.910Z,13.64
2024-03-02T10:05:12.240Z,13.92
2024-03-02T10:07:38.648Z,13.84
2024-03-02T10:10:05.035Z,13.83
2024-03-02T10:12:31.393Z,14.02
2024-03-02T10:14:57.972Z,14.30
2024-03-02T10:17:24.331Z,14.62
2024-03-02T10:19:50.676Z,14.59
2024-03-02T10:22:17.038Z,14.54
2024-03-02T10:24:43.521Z,14.71
2024-03-02T10:27:09.924Z,14.71
2024-03-02T10:29:36.300Z,14.87
2024-03-02T10:32:02.667Z,14.45
2024-03-02T10:34:29.036Z,14.57
2024-03-02T10:36:55.454Z,15.14
2024-03-02T10:39:21.848Z,15.27
2024-03-02T10:41:48.231Z,15.01
2024-03-02T10:44:14.625Z,14.86
2024-03-02T10:46:40.975Z,14.93
2024-03-02T10:49:08.742Z,15.10
2024-03-02T10:51:35.921Z,15.20
2024-03-02T10:54:02.273Z,15.23
2024-03-02T10:56:28.704Z,15.01
2024-03-02T10:58:55.118Z,14.73
2024-03-02T11:01:21.814Z,14.94
2024-03-02T11:03:48.272Z,14.72
2024-03-02T11:06:14.652Z,14.87
2024-03-02T11:08:41.034Z,15.03
2024-03-02T11:11:07.469Z,15.13
2024-03-02T11:13:33.883Z,14.95
2024-03-02T11:16:00.297Z,14.43
2024-03-02T11:18:26.707Z,14.76
2024-03-02T11:20:53.198Z,14.72
2024-03-02T11:23:19.722Z,14.39
2024-03-02T11:25:46.068Z,14.04
2024-03-02T11:28:12.524Z,13.92
2024-03-02T11:30:39.304Z,13.76
2024-03-02T11:33:06.078Z,13.94
2024-03-02T11:35:32.534Z,13.93
2024-03-02T11:37:58.907Z,13.86
2024-03-02T11:40:25.260Z,14.12
2024-03-02T11:42:51.726Z,14.44
2024-03-02T11:45:18.100Z,14.48
2024-03-02T11:47:44.484Z,14.44
2024-03-02T11:50:10.874Z,14.61
2024-03-02T11:52:37.227Z,14.61
2024-03-02T11:55:03.743Z,14.71
2024-03-02T11:57:30.166Z,14.70
2024-03-02T11:59:56.533Z,14.81
2024-03-02T12:02:22.889Z,14.84
2024-03-02T12:04:49.325Z,14.89
2024-03-02T12:07:15.681Z,14.82
2024-03-02T12:09:42.099Z,14.59
2024-03-02T12:12:08.498Z,14.70
2024-03-02T12:14:34.874Z,14.77
2024-03-02T12:17:01.251Z,14.74
2024-03-02T12:19:27.657Z,14.62
2024-03-02T12:21:54.012Z,14.78
2024-03-02T12:24:20.402Z,14.69
2024-03-02T12:26:46.775Z,14.65
2024-03-02T12:29:13.141Z,14.71
2024-03-02T12:31:39.485Z,14.65
2024-03-02T12:34:06.127Z,14.54
2024-03-02T12:36:32.546Z,14.26
2024-03-02T12:38:58.923Z,14.51
2024-03-02T12:41:25.303Z,14.59
2024-03-02T12:43:51.666Z,14.56
2024-03-02T12:46:18.070Z,14.66
2024-03-02T12:48:44.519Z,14.79
2024-03-02T12:51:10.881Z,14.85
2024-03-02T12:53:37.223Z,14.80
2024-03-02T12:56:03.817Z,14.92
2024-03-02T12:58:30.175Z,14.88
2024-03-02T13:00:56.637Z,14.64
2024-03-02T13:03:23.090Z,14.72
2024-03-02T13:05:49.447Z,14.53
2024-03-02T13:08:15.793Z,14.51
2024-03-02T13:10:42.190Z,14.24
2024-03-02T13:13:08.608Z,14.02
2024-03-02T13:15:34.985Z,14.36
2024-03-02T13:18:01.496Z,14.34
2024-03-02T13:20:27.971Z,14.40
2024-03-02T13:22:54.310Z,14.51
2024-03-02T13:25:20.690Z,14.73
2024-03-02T13:27:47.058Z,14.85
2024-03-02T13:30:13.433Z,14.88
2024-03-02T13:32:39.972Z,14.93
2024-03-02T13:35:06.549Z,14.89
2024-03-02T13:37:32.932Z,14.85
2024-03-02T13:39:59.363Z,14.59
2024-03-02T13:42:26.063Z,14.85
2024-03-02T13:44:52.519Z,14.88
2024-03-02T13:47:18.915Z,14.69
2024-03-02T13:49:45.262Z,14.50
2024-03-02T13:52:11.700Z,14.32
2024-03-02T13:54:38.168Z,14.22
2024-03-02T13:57:04.506Z,14.61
2024-03-02T13:59:30.849Z,14.73
2024-03-02T14:01:57.286Z,14.77
2024-03-02T14:04:23.695Z,14.89
2024-03-02T14:06:50.114Z,14.88
2024-03-02T14:09:16.488Z,14.95
2024-03-02T14:11:42.822Z,15.15
2024-03-02T14:14:09.153Z,15.17
2024-03-02T14:16:35.519Z,15.17
2024-03-02T14:19:01.885Z,15.24
2024-03-02T14:21:28.243Z,15.32
2024-03-02T14:23:54.617Z,15.32
2024-03-02T14:26:20.953Z,15.35
2024-03-02T14:28:50.601Z,15.37
2024-03-02T14:31:18.071Z,15.35
2024-03-02T14:33:44.514Z,15.36
2024-03-02T14:36:10.902Z,15.32
2024-03-02T14:38:37.272Z,15.33
2024-03-02T14:41:03.647Z,15.42
2024-03-02T14:43:29.999Z,15.31
2024-03-02T14:45:56.434Z,15.36
2024-03-02T14:48:22.801Z,15.45
2024-03-02T14:50:49.132Z,15.47
2024-03-02T14:53:15.499Z,15.51
2024-03-02T14:55:41.969Z,15.51
2024-03-02T14:58:08.340Z,15.47
2024-03-02T15:00:34.783Z,15.10
2024-03-02T15:03:01.152Z,15.12
2024-03-02T15:05:27.507Z,15.32
2024-03-02T15:07:53.878Z,15.39
2024-03-02T15:10:20.226Z,15.44
2024-03-02T15:12:46.594Z,15.50
2024-03-02T15:15:13.007Z,15.55
2024-03-02T15:17:39.418Z,15.52
2024-03-02T15:20:05.804Z,15.51
2024-03-02T15:22:32.206Z,15.58
2024-03-02T15:24:58.584Z,15.60
2024-03-02T15:27:25.076Z,15.60
2024-03-02T15:29:51.527Z,15.60
2024-03-02T15:32:18.049Z,15.42
2024-03-02T15:34:44.573Z,15.38
2024-03-02T15:37:11.097Z,15.47
2024-03-02T15:39:37.511Z,15.49
2024-03-02T15:42:03.948Z,15.41
2024-03-02T15:44:30.321Z,15.41
2024-03-02T15:46:56.674Z,15.47
2024-03-02T15:49:23.135Z,15.48
2024-03-02T15:51:49.583Z,15.50
2024-03-02T15:54:15.939Z,15.50
2024-03-02T15:56:42.302Z,15.51
2024-03-02T15:59:08.709Z,15.53
2024-03-02T16:01:35.121Z,15.50
2024-03-02T16:04:01.590Z,15.50
2024-03-02T16:06:28.045Z,15.48
2024-03-02T16:08:54.414Z,15.42
2024-03-02T16:11:20.812Z,15.40
2024-03-02T16:13:47.234Z,15.42
2024-03-02T16:16:13.626Z,15.42
2024-03-02T16:18:40.060Z,15.37
2024-03-02T16:21:06.498Z,15.29
2024-03-02T16:23:32.855Z,14.99
2024-03-02T16:25:59.190Z,14.68
2024-03-02T16:28:25.559Z,14.51
2024-03-02T16:30:51.933Z,14.56
2024-03-02T16:33:18.298Z,14.72
2024-03-02T16:35:44.652Z,14.87
2024-03-02T16:38:10.998Z,14.97
2024-03-02T16:40:37.361Z,14.93
2024-03-02T16:43:03.778Z,14.78
2024-03-02T16:45:30.149Z,14.84
2024-03-02T16:47:56.695Z,14.81
2024-03-02T16:50:23.072Z,14.87
2024-03-02T16:52:49.423Z,14.88
2024-03-02T16:55:16.031Z,14.88
2024-03-02T16:57:42.549Z,14.85
2024-03-02T17:00:08.967Z,14.83
2024-03-02T17:02:35.356Z,14.83
2024-03-02T17:05:01.756Z,14.83
2024-03-02T17:07:28.108Z,14.83
2024-03-02T17:09:54.561Z,14.82
2024-03-02T17:12:20.977Z,14.79
2024-03-02T17:14:47.325Z,14.78
2024-03-02T17:17:13.675Z,14.81
2024-03-02T17:19:40.040Z,14.78
2024-03-02T17:22:06.551Z,14.78
2024-03-02T17:24:33.015Z,14.74
2024-03-02T17:26:59.501Z,14.76
2024-03-02T17:29:28.708Z,14.73
2024-03-02T17:31:55.053Z,14.71
2024-03-02T17:34:21.464Z,14.69
2024-03-02T17:36:47.909Z,14.53
2024-03-02T17:39:14.259Z,14.53
2024-03-02T17:41:40.624Z,14.57
2024-03-02T17:44:07.354Z,14.62
2024-03-02T17:46:33.724Z,14.63
2024-03-02T17:49:00.222Z,14.66
2024-03-02T17:51:26.633Z,14.67
2024-03-02T17:53:53.052Z,14.65
2024-03-02T17:56:19.444Z,14.60
2024-03-02T17:58:45.793Z,14.55
2024-03-02T18:01:12.163Z,14.52
2024-03-02T18:03:38.579Z,14.53
2024-03-02T18:06:04.935Z,14.52
2024-03-02T18:08:31.325Z,14.53
2024-03-02T18:10:57.765Z,14.51
2024-03-02T18:13:24.117Z,14.51
2024-03-02T18:15:51.701Z,14.51
2024-03-02T18:18:18.345Z,14.52
2024-03-02T18:20:44.751Z,14.54
2024-03-02T18:23:11.146Z,14.51
2024-03-02T18:25:37.529Z,14.49
2024-03-02T18:28:03.964Z,14.46
2024-03-02T18:30:30.376Z,14.39
2024-03-02T18:32:56.814Z,14.34
2024-03-02T18:35:23.225Z,14.31
2024-03-02T18:37:49.599Z,14.29
2024-03-02T18:40:16.143Z,14.27
2024-03-02T18:42:42.602Z,14.18
2024-03-02T18:45:08.996Z,14.17
2024-03-02T18:47:35.588Z,14.14
2024-03-02T18:50:02.050Z,14.07
2024-03-02T18:52:28.425Z,14.10
2024-03-02T18:54:54.907Z,14.14
2024-03-02T18:57:21.400Z,14.20
2024-03-02T18:59:47.758Z,14.21
2024-03-02T19:02:14.281Z,14.15
2024-03-02T19:04:40.667Z,14.08
2024-03-02T19:07:07.116Z,14.09
2024-03-02T19:09:33.591Z,14.06
2024-03-02T19:11:59.970Z,13.99
2024-03-02T19:14:26.333Z,13.97
2024-03-02T19:16:52.698Z,13.94
2024-03-02T19:19:19.076Z,13.88
2024-03-02T19:21:46.148Z,13.84
2024-03-02T19:24:15.521Z,13.86
2024-03-02T19:26:41.866Z,13.82
2024-03-02T19:29:08.213Z,13.80
2024-03-02T19:31:34.634Z,13.79
2024-03-02T19:34:01.032Z,13.75
2024-03-02T19:36:27.392Z,13.65
2024-03-02T19:38:53.758Z,13.60
2024-03-02T19:41:20.110Z,13.52
2024-03-02T19:43:46.463Z,13.44
2024-03-02T19:46:12.972Z,13.48
2024-03-02T19:48:39.461Z,13.51
2024-03-02T19:51:05.881Z,13.50
2024-03-02T19:53:32.247Z,13.49
2024-03-02T19:55:58.619Z,13.46
2024-03-02T19:58:25.005Z,13.44
2024-03-02T20:00:51.458Z,13.42
2024-03-02T20:03:17.814Z,13.40
2024-03-02T20:05:44.228Z,13.42
2024-03-02T20:08:10.591Z,13.46
2024-03-02T20:10:36.931Z,13.43
2024-03-02T20:13:03.347Z,13.41
2024-03-02T20:15:29.770Z,13.42
2024-03-02T20:17:56.193Z,13.41
2024-03-02T20:20:22.574Z,13.39
2024-03-02T20:22:48.950Z,13.38
2024-03-02T20:25:15.468Z,13.36
2024-03-02T20:27:41.871Z,13.33
2024-03-02T20:30:08.244Z,13.27
2024-03-02T20:32:34.706Z,13.23
2024-03-02T20:35:01.098Z,13.21
2024-03-02T20:37:27.485Z,13.21
2024-03-02T20:39:54.001Z,13.22
2024-03-02T20:42:20.447Z,13.20
2024-03-02T20:44:46.877Z,13.19
2024-03-02T20:47:13.227Z,13.16
2024-03-02T20:49:39.651Z,13.15
2024-03-02T20:52:06.155Z,13.12
2024-03-02T20:54:32.632Z,13.11
2024-03-02T20:56:59.002Z,13.12
2024-03-02T20:59:25.386Z,13.08
2024-03-02T21:01:51.769Z,13.10
2024-03-02T21:04:18.179Z,13.08
2024-03-02T21:06:44.612Z,13.08
2024-03-02T21:09:10.976Z,13.11
2024-03-02T21:11:37.454Z,13.19
2024-03-02T21:14:03.876Z,13.15
2024-03-02T21:16:30.216Z,13.13
2024-03-02T21:18:56.653Z,13.11
2024-03-02T21:21:23.292Z,13.11
2024-03-02T21:23:49.631Z,13.11
2024-03-02T21:26:15.963Z,13.11
2024-03-02T21:28:42.316Z,13.12
2024-03-02T21:31:08.715Z,13.03
2024-03-02T21:33:35.121Z,13.06
2024-03-02T21:36:01.509Z,13.06
2024-03-02T21:38:27.856Z,13.08
2024-03-02T21:40:54.209Z,13.05
2024-03-02T21:43:20.601Z,13.04
2024-03-02T21:45:46.974Z,13.11
2024-03-02T21:48:13.346Z,13.09
2024-03-02T21:50:39.745Z,13.10
2024-03-02T21:53:06.076Z,13.04
2024-03-02T21:55:32.420Z,13.03
2024-03-02T21:57:58.856Z,13.09
2024-03-02T22:00:25.250Z,13.05
2024-03-02T22:02:51.638Z,13.03
2024-03-02T22:05:18.005Z,13.05
2024-03-02T22:07:44.382Z,13.06
2024-03-02T22:10:10.789Z,13.01
2024-03-02T22:12:37.258Z,13.01
2024-03-02T22:15:03.665Z,13.04
2024-03-02T22:17:30.146Z,13.03
2024-03-02T22:19:56.561Z,13.03
2024-03-02T22:22:22.958Z,13.09
2024-03-02T22:24:49.493Z,13.06
2024-03-02T22:27:15.933Z,13.07
2024-03-02T22:29:42.288Z,13.03
2024-03-02T22:32:08.627Z,13.04
2024-03-02T22:34:34.992Z,13.08
2024-03-02T22:37:01.368Z,13.06
2024-03-02T22:39:27.730Z,13.04
2024-03-02T22:41:54.094Z,12.97
2024-03-02T22:44:20.439Z,12.96
2024-03-02T22:46:46.783Z,12.94
2024-03-02T22:49:13.219Z,12.93
2024-03-02T22:51:39.592Z,12.90
2024-03-02T22:54:05.932Z,12.90
2024-03-02T22:56:32.342Z,12.90
2024-03-02T22:58:58.856Z,12.94
2024-03-02T23:01:25.299Z,12.92
2024-03-02T23:03:51.799Z,12.86
2024-03-02T23:06:18.177Z,12.89
2024-03-02T23:08:44.526Z,12.82
2024-03-02T23:11:10.951Z,12.82
2024-03-02T23:13:37.330Z,12.69
2024-03-02T23:16:03.705Z,12.67
2024-03-02T23:18:30.085Z,12.70
2024-03-02T23:20:56.441Z,12.63
2024-03-02T23:23:22.782Z,12.63
2024-03-02T23:25:49.173Z,12.56
2024-03-02T23:28:15.591Z,12.58
2024-03-02T23:30:42.000Z,12.56
2024-03-02T23:33:08.388Z,12.43
2024-03-02T23:35:34.821Z,12.45
2024-03-02T23:38:01.173Z,12.51
2024-03-02T23:40:27.544Z,12.56
2024-03-02T23:42:53.898Z,12.52
2024-03-02T23:45:20.262Z,12.43
2024-03-02T23:47:46.685Z,12.48
2024-03-02T23:50:13.018Z,12.47
2024-03-02T23:52:39.364Z,12.44
2024-03-02T23:55:08.876Z,12.49
2024-03-02T23:57:35.758Z,12.43
